sensor_id;sensor_type;location;lat;lon;timestamp;P1;durP1;ratioP1;P2;durP2;ratioP2
45728;SDS011;31439;53.512;10.206;2022-07-29T00:00:41;4.15;;;1.33;;
45728;SDS011;31439;53.512;10.206;2022-07-29T00:03:09;9.23;;;1.90;;
45728;SDS011;31439;53.512;10.206;2022-07-29T00:05:35;3.72;;;1.50;;
45728;SDS011;31439;53.512;10.206;2022-07-29T00:08:02;4.75;;;1.45;;
45728;SDS011;31439;53.512;10.206;2022-07-29T00:10:28;5.75;;;1.75;;
45728;SDS011;31439;53.512;10.206;2022-07-29T00:12:54;5.53;;;1.70;;
45728;SDS011;31439;53.512;10.206;2022-07-29T00:15:19;3.70;;;1.58;;
45728;SDS011;31439;53.512;10.206;2022-07-29T00:17:45;3.85;;;1.52;;
45728;SDS011;31439;53.512;10.206;2022-07-29T00:20:11;5.25;;;1.50;;
45728;SDS011;31439;53.512;10.206;2022-07-29T00:22:37;5.15;;;1.80;;
45728;SDS011;31439;53.512;10.206;2022-07-29T00:25:04;3.30;;;1.42;;
45728;SDS011;31439;53.512;10.206;2022-07-29T00:27:29;4.85;;;1.92;;
45728;SDS011;31439;53.512;10.206;2022-07-29T00:29:55;6.93;;;1.60;;
45728;SDS011;31439;53.512;10.206;2022-07-29T00:32:21;4.90;;;1.80;;
45728;SDS011;31439;53.512;10.206;2022-07-29T00:34:46;5.40;;;1.65;;
45728;SDS011;31439;53.512;10.206;2022-07-29T00:37:31;3.77;;;1.63;;
45728;SDS011;31439;53.512;10.206;2022-07-29T00:39:56;7.93;;;1.75;;
45728;SDS011;31439;53.512;10.206;2022-07-29T00:42:22;7.40;;;1.75;;
45728;SDS011;31439;53.512;10.206;2022-07-29T00:44:47;5.85;;;1.80;;
45728;SDS011;31439;53.512;10.206;2022-07-29T00:47:13;6.80;;;1.70;;
45728;SDS011;31439;53.512;10.206;2022-07-29T00:49:39;2.75;;;1.55;;
45728;SDS011;31439;53.512;10.206;2022-07-29T00:52:07;5.60;;;2.00;;
45728;SDS011;31439;53.512;10.206;2022-07-29T00:54:34;9.57;;;2.08;;
45728;SDS011;31439;53.512;10.206;2022-07-29T00:57:00;6.10;;;2.10;;
45728;SDS011;31439;53.512;10.206;2022-07-29T00:59:26;4.82;;;1.88;;
45728;SDS011;31439;53.512;10.206;2022-07-29T01:01:52;5.30;;;2.05;;
45728;SDS011;31439;53.512;10.206;2022-07-29T01:04:18;5.85;;;1.80;;
45728;SDS011;31439;53.512;10.206;2022-07-29T01:06:45;4.93;;;1.88;;
45728;SDS011;31439;53.512;10.206;2022-07-29T01:09:12;7.30;;;2.20;;
45728;SDS011;31439;53.512;10.206;2022-07-29T01:11:38;4.40;;;2.08;;
45728;SDS011;31439;53.512;10.206;2022-07-29T01:14:05;4.22;;;1.85;;
45728;SDS011;31439;53.512;10.206;2022-07-29T01:16:48;16.17;;;2.17;;
45728;SDS011;31439;53.512;10.206;2022-07-29T01:22:11;5.43;;;1.90;;
45728;SDS011;31439;53.512;10.206;2022-07-29T01:30:22;6.18;;;1.95;;
45728;SDS011;31439;53.512;10.206;2022-07-29T01:32:51;5.00;;;2.10;;
45728;SDS011;31439;53.512;10.206;2022-07-29T01:35:23;7.20;;;2.03;;
45728;SDS011;31439;53.512;10.206;2022-07-29T01:38:08;5.22;;;1.95;;
45728;SDS011;31439;53.512;10.206;2022-07-29T01:40:48;5.15;;;2.25;;
45728;SDS011;31439;53.512;10.206;2022-07-29T01:43:17;7.38;;;2.20;;
45728;SDS011;31439;53.512;10.206;2022-07-29T01:45:53;6.07;;;2.20;;
45728;SDS011;31439;53.512;10.206;2022-07-29T01:48:33;5.80;;;2.28;;
45728;SDS011;31439;53.512;10.206;2022-07-29T01:51:16;5.30;;;2.15;;
45728;SDS011;31439;53.512;10.206;2022-07-29T01:53:50;6.85;;;2.03;;
45728;SDS011;31439;53.512;10.206;2022-07-29T01:56:23;3.42;;;2.15;;
45728;SDS011;31439;53.512;10.206;2022-07-29T01:58:50;8.65;;;2.00;;
45728;SDS011;31439;53.512;10.206;2022-07-29T02:01:18;6.05;;;2.15;;
45728;SDS011;31439;53.512;10.206;2022-07-29T02:03:45;6.55;;;2.30;;
45728;SDS011;31439;53.512;10.206;2022-07-29T02:06:12;5.60;;;2.47;;
45728;SDS011;31439;53.512;10.206;2022-07-29T02:08:43;7.13;;;2.42;;
45728;SDS011;31439;53.512;10.206;2022-07-29T02:11:11;6.07;;;2.17;;
45728;SDS011;31439;53.512;10.206;2022-07-29T02:13:37;12.18;;;2.20;;
45728;SDS011;31439;53.512;10.206;2022-07-29T02:16:05;4.45;;;1.92;;
45728;SDS011;31439;53.512;10.206;2022-07-29T02:18:32;6.45;;;2.20;;
45728;SDS011;31439;53.512;10.206;2022-07-29T02:21:01;4.95;;;2.50;;
45728;SDS011;31439;53.512;10.206;2022-07-29T02:23:28;8.30;;;2.40;;
45728;SDS011;31439;53.512;10.206;2022-07-29T02:25:56;6.38;;;2.30;;
45728;SDS011;31439;53.512;10.206;2022-07-29T02:28:24;6.47;;;2.40;;
45728;SDS011;31439;53.512;10.206;2022-07-29T02:30:52;4.05;;;2.03;;
45728;SDS011;31439;53.512;10.206;2022-07-29T02:33:19;6.07;;;2.33;;
45728;SDS011;31439;53.512;10.206;2022-07-29T02:35:47;6.18;;;1.98;;
45728;SDS011;31439;53.512;10.206;2022-07-29T02:38:15;4.05;;;2.20;;
45728;SDS011;31439;53.512;10.206;2022-07-29T02:41:01;8.77;;;2.15;;
45728;SDS011;31439;53.512;10.206;2022-07-29T02:43:31;6.38;;;2.08;;
45728;SDS011;31439;53.512;10.206;2022-07-29T02:45:57;3.55;;;2.20;;
45728;SDS011;31439;53.512;10.206;2022-07-29T02:48:27;8.40;;;2.40;;
45728;SDS011;31439;53.512;10.206;2022-07-29T02:51:06;9.30;;;2.40;;
45728;SDS011;31439;53.512;10.206;2022-07-29T02:56:08;7.63;;;2.22;;
45728;SDS011;31439;53.512;10.206;2022-07-29T02:58:38;4.75;;;2.33;;
45728;SDS011;31439;53.512;10.206;2022-07-29T03:01:13;4.65;;;2.03;;
45728;SDS011;31439;53.512;10.206;2022-07-29T03:03:42;7.38;;;2.38;;
45728;SDS011;31439;53.512;10.206;2022-07-29T03:06:11;6.97;;;2.10;;
45728;SDS011;31439;53.512;10.206;2022-07-29T03:08:40;5.63;;;2.05;;
45728;SDS011;31439;53.512;10.206;2022-07-29T03:11:07;7.20;;;2.55;;
45728;SDS011;31439;53.512;10.206;2022-07-29T03:13:34;6.13;;;2.55;;
45728;SDS011;31439;53.512;10.206;2022-07-29T03:16:00;8.80;;;2.25;;
45728;SDS011;31439;53.512;10.206;2022-07-29T03:18:26;7.53;;;2.47;;
45728;SDS011;31439;53.512;10.206;2022-07-29T03:20:52;7.85;;;2.38;;
45728;SDS011;31439;53.512;10.206;2022-07-29T03:23:19;8.57;;;2.50;;
45728;SDS011;31439;53.512;10.206;2022-07-29T03:25:52;5.10;;;2.25;;
45728;SDS011;31439;53.512;10.206;2022-07-29T03:28:18;9.25;;;2.42;;
45728;SDS011;31439;53.512;10.206;2022-07-29T03:30:44;7.05;;;2.13;;
45728;SDS011;31439;53.512;10.206;2022-07-29T03:33:10;5.15;;;2.00;;
45728;SDS011;31439;53.512;10.206;2022-07-29T03:35:36;6.43;;;2.83;;
45728;SDS011;31439;53.512;10.206;2022-07-29T03:38:01;9.95;;;2.95;;
45728;SDS011;31439;53.512;10.206;2022-07-29T03:40:32;6.35;;;2.35;;
45728;SDS011;31439;53.512;10.206;2022-07-29T03:43:03;4.68;;;2.20;;
45728;SDS011;31439;53.512;10.206;2022-07-29T03:45:32;4.57;;;2.42;;
45728;SDS011;31439;53.512;10.206;2022-07-29T03:47:59;8.02;;;2.47;;
45728;SDS011;31439;53.512;10.206;2022-07-29T03:50:27;8.07;;;2.20;;
45728;SDS011;31439;53.512;10.206;2022-07-29T03:52:55;7.40;;;2.25;;
45728;SDS011;31439;53.512;10.206;2022-07-29T03:55:21;5.18;;;2.13;;
45728;SDS011;31439;53.512;10.206;2022-07-29T03:57:47;5.60;;;2.20;;
45728;SDS011;31439;53.512;10.206;2022-07-29T04:00:14;4.78;;;2.20;;
45728;SDS011;31439;53.512;10.206;2022-07-29T04:02:40;6.63;;;2.13;;
45728;SDS011;31439;53.512;10.206;2022-07-29T04:05:12;5.35;;;2.10;;
45728;SDS011;31439;53.512;10.206;2022-07-29T04:07:38;7.32;;;2.58;;
45728;SDS011;31439;53.512;10.206;2022-07-29T04:10:04;5.70;;;2.45;;
45728;SDS011;31439;53.512;10.206;2022-07-29T04:12:30;9.68;;;2.60;;
45728;SDS011;31439;53.512;10.206;2022-07-29T04:14:56;6.70;;;2.50;;
45728;SDS011;31439;53.512;10.206;2022-07-29T04:17:21;6.90;;;2.22;;
45728;SDS011;31439;53.512;10.206;2022-07-29T04:19:47;7.82;;;2.58;;
45728;SDS011;31439;53.512;10.206;2022-07-29T04:22:12;4.80;;;2.35;;
45728;SDS011;31439;53.512;10.206;2022-07-29T04:24:38;7.15;;;2.80;;
45728;SDS011;31439;53.512;10.206;2022-07-29T04:27:03;5.90;;;2.00;;
45728;SDS011;31439;53.512;10.206;2022-07-29T04:29:29;6.75;;;2.42;;
45728;SDS011;31439;53.512;10.206;2022-07-29T04:31:54;6.20;;;2.45;;
45728;SDS011;31439;53.512;10.206;2022-07-29T04:34:20;6.38;;;2.50;;
45728;SDS011;31439;53.512;10.206;2022-07-29T04:36:46;6.30;;;2.40;;
45728;SDS011;31439;53.512;10.206;2022-07-29T04:39:11;6.05;;;2.67;;
45728;SDS011;31439;53.512;10.206;2022-07-29T04:41:37;4.75;;;2.10;;
45728;SDS011;31439;53.512;10.206;2022-07-29T04:44:03;6.50;;;2.55;;
45728;SDS011;31439;53.512;10.206;2022-07-29T04:46:30;6.15;;;2.55;;
45728;SDS011;31439;53.512;10.206;2022-07-29T04:48:56;7.35;;;2.50;;
45728;SDS011;31439;53.512;10.206;2022-07-29T04:51:22;7.15;;;2.80;;
45728;SDS011;31439;53.512;10.206;2022-07-29T04:53:47;9.38;;;2.10;;
45728;SDS011;31439;53.512;10.206;2022-07-29T04:56:13;9.30;;;2.45;;
45728;SDS011;31439;53.512;10.206;2022-07-29T04:58:38;13.98;;;2.90;;
45728;SDS011;31439;53.512;10.206;2022-07-29T05:01:04;10.77;;;2.83;;
45728;SDS011;31439;53.512;10.206;2022-07-29T05:03:30;12.23;;;2.63;;
45728;SDS011;31439;53.512;10.206;2022-07-29T05:05:55;7.57;;;2.60;;
45728;SDS011;31439;53.512;10.206;2022-07-29T05:08:21;7.90;;;2.40;;
45728;SDS011;31439;53.512;10.206;2022-07-29T05:10:46;13.57;;;2.92;;
45728;SDS011;31439;53.512;10.206;2022-07-29T05:13:12;8.90;;;2.40;;
45728;SDS011;31439;53.512;10.206;2022-07-29T05:15:38;8.70;;;2.60;;
45728;SDS011;31439;53.512;10.206;2022-07-29T05:18:03;11.32;;;2.92;;
45728;SDS011;31439;53.512;10.206;2022-07-29T05:20:29;8.13;;;2.63;;
45728;SDS011;31439;53.512;10.206;2022-07-29T05:22:56;13.55;;;2.95;;
45728;SDS011;31439;53.512;10.206;2022-07-29T05:25:23;5.50;;;2.53;;
45728;SDS011;31439;53.512;10.206;2022-07-29T05:27:49;6.50;;;2.47;;
45728;SDS011;31439;53.512;10.206;2022-07-29T05:30:15;4.95;;;1.95;;
45728;SDS011;31439;53.512;10.206;2022-07-29T05:32:41;6.05;;;2.13;;
45728;SDS011;31439;53.512;10.206;2022-07-29T05:35:06;4.32;;;2.20;;
45728;SDS011;31439;53.512;10.206;2022-07-29T05:37:33;8.02;;;2.55;;
45728;SDS011;31439;53.512;10.206;2022-07-29T05:39:58;4.70;;;1.95;;
45728;SDS011;31439;53.512;10.206;2022-07-29T05:42:24;8.05;;;2.60;;
45728;SDS011;31439;53.512;10.206;2022-07-29T05:44:50;4.57;;;2.15;;
45728;SDS011;31439;53.512;10.206;2022-07-29T05:47:16;7.28;;;2.33;;
45728;SDS011;31439;53.512;10.206;2022-07-29T05:49:42;4.47;;;2.10;;
45728;SDS011;31439;53.512;10.206;2022-07-29T05:52:07;5.35;;;2.30;;
45728;SDS011;31439;53.512;10.206;2022-07-29T05:54:34;5.88;;;2.00;;
45728;SDS011;31439;53.512;10.206;2022-07-29T05:57:00;6.85;;;2.40;;
45728;SDS011;31439;53.512;10.206;2022-07-29T05:59:26;6.25;;;2.38;;
45728;SDS011;31439;53.512;10.206;2022-07-29T06:01:51;5.57;;;2.10;;
45728;SDS011;31439;53.512;10.206;2022-07-29T06:04:17;4.53;;;2.13;;
45728;SDS011;31439;53.512;10.206;2022-07-29T06:06:43;5.88;;;2.33;;
45728;SDS011;31439;53.512;10.206;2022-07-29T06:09:08;8.25;;;2.20;;
45728;SDS011;31439;53.512;10.206;2022-07-29T06:11:34;4.85;;;2.25;;
45728;SDS011;31439;53.512;10.206;2022-07-29T06:13:59;5.93;;;2.30;;
45728;SDS011;31439;53.512;10.206;2022-07-29T06:16:25;6.10;;;1.95;;
45728;SDS011;31439;53.512;10.206;2022-07-29T06:18:51;5.28;;;2.00;;
45728;SDS011;31439;53.512;10.206;2022-07-29T06:21:17;6.32;;;2.05;;
45728;SDS011;31439;53.512;10.206;2022-07-29T06:23:42;6.85;;;2.10;;
45728;SDS011;31439;53.512;10.206;2022-07-29T06:26:10;6.78;;;1.92;;
45728;SDS011;31439;53.512;10.206;2022-07-29T06:28:35;8.98;;;2.50;;
45728;SDS011;31439;53.512;10.206;2022-07-29T06:31:01;4.80;;;2.40;;
45728;SDS011;31439;53.512;10.206;2022-07-29T06:33:27;7.72;;;2.03;;
45728;SDS011;31439;53.512;10.206;2022-07-29T06:35:52;7.28;;;2.08;;
45728;SDS011;31439;53.512;10.206;2022-07-29T06:38:18;4.50;;;2.28;;
45728;SDS011;31439;53.512;10.206;2022-07-29T06:40:44;8.20;;;2.00;;
45728;SDS011;31439;53.512;10.206;2022-07-29T06:43:37;4.25;;;1.95;;
45728;SDS011;31439;53.512;10.206;2022-07-29T06:46:09;6.97;;;2.10;;
45728;SDS011;31439;53.512;10.206;2022-07-29T06:48:37;4.75;;;2.30;;
45728;SDS011;31439;53.512;10.206;2022-07-29T06:51:03;6.38;;;2.20;;
45728;SDS011;31439;53.512;10.206;2022-07-29T06:53:30;6.70;;;1.90;;
45728;SDS011;31439;53.512;10.206;2022-07-29T06:55:57;7.18;;;2.03;;
45728;SDS011;31439;53.512;10.206;2022-07-29T06:58:24;6.43;;;1.95;;
45728;SDS011;31439;53.512;10.206;2022-07-29T07:00:50;10.05;;;2.08;;
45728;SDS011;31439;53.512;10.206;2022-07-29T07:03:16;5.57;;;2.20;;
45728;SDS011;31439;53.512;10.206;2022-07-29T07:05:43;6.45;;;2.10;;
45728;SDS011;31439;53.512;10.206;2022-07-29T07:08:09;3.97;;;1.90;;
45728;SDS011;31439;53.512;10.206;2022-07-29T07:10:35;5.15;;;2.30;;
45728;SDS011;31439;53.512;10.206;2022-07-29T07:13:01;5.18;;;2.20;;
45728;SDS011;31439;53.512;10.206;2022-07-29T07:15:27;6.68;;;2.33;;
45728;SDS011;31439;53.512;10.206;2022-07-29T07:17:53;4.50;;;1.95;;
45728;SDS011;31439;53.512;10.206;2022-07-29T07:20:19;7.60;;;2.28;;
45728;SDS011;31439;53.512;10.206;2022-07-29T07:22:44;5.88;;;2.33;;
45728;SDS011;31439;53.512;10.206;2022-07-29T07:25:10;5.63;;;2.20;;
45728;SDS011;31439;53.512;10.206;2022-07-29T07:27:37;4.30;;;2.00;;
45728;SDS011;31439;53.512;10.206;2022-07-29T07:30:03;6.20;;;2.17;;
45728;SDS011;31439;53.512;10.206;2022-07-29T07:32:31;6.55;;;2.50;;
45728;SDS011;31439;53.512;10.206;2022-07-29T07:34:57;5.85;;;3.15;;
45728;SDS011;31439;53.512;10.206;2022-07-29T07:37:23;8.57;;;2.45;;
45728;SDS011;31439;53.512;10.206;2022-07-29T07:39:50;8.15;;;2.70;;
45728;SDS011;31439;53.512;10.206;2022-07-29T07:42:16;9.07;;;2.33;;
45728;SDS011;31439;53.512;10.206;2022-07-29T07:44:42;6.68;;;2.22;;
45728;SDS011;31439;53.512;10.206;2022-07-29T07:47:07;5.07;;;2.40;;
45728;SDS011;31439;53.512;10.206;2022-07-29T07:49:33;6.55;;;2.00;;
45728;SDS011;31439;53.512;10.206;2022-07-29T07:51:59;9.55;;;2.45;;
45728;SDS011;31439;53.512;10.206;2022-07-29T07:54:24;5.78;;;2.42;;
45728;SDS011;31439;53.512;10.206;2022-07-29T07:56:50;7.50;;;2.63;;
45728;SDS011;31439;53.512;10.206;2022-07-29T07:59:16;6.32;;;2.60;;
45728;SDS011;31439;53.512;10.206;2022-07-29T08:01:41;7.53;;;2.47;;
45728;SDS011;31439;53.512;10.206;2022-07-29T08:04:07;4.60;;;2.38;;
45728;SDS011;31439;53.512;10.206;2022-07-29T08:06:34;6.65;;;2.45;;
45728;SDS011;31439;53.512;10.206;2022-07-29T08:09:00;4.00;;;1.60;;
45728;SDS011;31439;53.512;10.206;2022-07-29T08:11:27;3.72;;;2.00;;
45728;SDS011;31439;53.512;10.206;2022-07-29T08:13:53;6.90;;;2.10;;
45728;SDS011;31439;53.512;10.206;2022-07-29T08:16:19;7.55;;;2.40;;
45728;SDS011;31439;53.512;10.206;2022-07-29T08:18:45;5.82;;;2.00;;
45728;SDS011;31439;53.512;10.206;2022-07-29T08:21:11;6.25;;;2.17;;
45728;SDS011;31439;53.512;10.206;2022-07-29T08:23:38;7.75;;;2.67;;
45728;SDS011;31439;53.512;10.206;2022-07-29T08:26:05;5.65;;;2.63;;
45728;SDS011;31439;53.512;10.206;2022-07-29T08:28:35;7.05;;;2.25;;
45728;SDS011;31439;53.512;10.206;2022-07-29T08:31:04;3.75;;;1.98;;
45728;SDS011;31439;53.512;10.206;2022-07-29T08:33:30;4.22;;;1.88;;
45728;SDS011;31439;53.512;10.206;2022-07-29T08:35:56;6.63;;;2.10;;
45728;SDS011;31439;53.512;10.206;2022-07-29T08:38:21;8.70;;;2.20;;
45728;SDS011;31439;53.512;10.206;2022-07-29T08:40:47;5.43;;;2.20;;
45728;SDS011;31439;53.512;10.206;2022-07-29T08:43:13;4.18;;;2.35;;
45728;SDS011;31439;53.512;10.206;2022-07-29T08:45:43;5.20;;;2.00;;
45728;SDS011;31439;53.512;10.206;2022-07-29T08:48:14;5.85;;;2.38;;
45728;SDS011;31439;53.512;10.206;2022-07-29T08:50:41;4.85;;;2.10;;
45728;SDS011;31439;53.512;10.206;2022-07-29T08:53:09;7.07;;;2.08;;
45728;SDS011;31439;53.512;10.206;2022-07-29T08:55:39;3.65;;;1.90;;
45728;SDS011;31439;53.512;10.206;2022-07-29T08:58:08;4.25;;;1.90;;
45728;SDS011;31439;53.512;10.206;2022-07-29T09:00:35;7.90;;;2.50;;
45728;SDS011;31439;53.512;10.206;2022-07-29T09:03:02;6.25;;;2.17;;
45728;SDS011;31439;53.512;10.206;2022-07-29T09:05:30;4.10;;;2.00;;
45728;SDS011;31439;53.512;10.206;2022-07-29T09:07:57;6.13;;;2.13;;
45728;SDS011;31439;53.512;10.206;2022-07-29T09:10:23;7.05;;;2.38;;
45728;SDS011;31439;53.512;10.206;2022-07-29T09:12:49;5.15;;;2.45;;
45728;SDS011;31439;53.512;10.206;2022-07-29T09:15:15;7.38;;;2.05;;
45728;SDS011;31439;53.512;10.206;2022-07-29T09:17:41;8.07;;;2.15;;
45728;SDS011;31439;53.512;10.206;2022-07-29T09:20:12;4.07;;;2.13;;
45728;SDS011;31439;53.512;10.206;2022-07-29T09:22:41;6.07;;;2.22;;
45728;SDS011;31439;53.512;10.206;2022-07-29T09:25:07;4.90;;;2.03;;
45728;SDS011;31439;53.512;10.206;2022-07-29T09:27:33;9.95;;;2.10;;
45728;SDS011;31439;53.512;10.206;2022-07-29T09:30:00;6.32;;;2.00;;
45728;SDS011;31439;53.512;10.206;2022-07-29T09:32:26;5.47;;;1.98;;
45728;SDS011;31439;53.512;10.206;2022-07-29T09:37:41;6.32;;;1.80;;
45728;SDS011;31439;53.512;10.206;2022-07-29T09:40:11;3.75;;;1.80;;
45728;SDS011;31439;53.512;10.206;2022-07-29T09:42:45;5.63;;;2.00;;
45728;SDS011;31439;53.512;10.206;2022-07-29T09:45:11;5.97;;;1.90;;
45728;SDS011;31439;53.512;10.206;2022-07-29T09:47:45;5.95;;;1.90;;
45728;SDS011;31439;53.512;10.206;2022-07-29T09:50:14;7.45;;;1.95;;
45728;SDS011;31439;53.512;10.206;2022-07-29T09:52:50;6.55;;;2.15;;
45728;SDS011;31439;53.512;10.206;2022-07-29T09:55:17;5.95;;;2.15;;
45728;SDS011;31439;53.512;10.206;2022-07-29T09:57:43;4.45;;;1.92;;
45728;SDS011;31439;53.512;10.206;2022-07-29T10:00:11;3.17;;;1.85;;
45728;SDS011;31439;53.512;10.206;2022-07-29T10:02:38;5.75;;;2.10;;
45728;SDS011;31439;53.512;10.206;2022-07-29T10:05:26;5.03;;;2.00;;
45728;SDS011;31439;53.512;10.206;2022-07-29T10:07:54;9.50;;;2.00;;
45728;SDS011;31439;53.512;10.206;2022-07-29T10:12:58;7.43;;;1.90;;
45728;SDS011;31439;53.512;10.206;2022-07-29T10:15:29;3.30;;;1.60;;
45728;SDS011;31439;53.512;10.206;2022-07-29T10:17:58;4.65;;;1.55;;
45728;SDS011;31439;53.512;10.206;2022-07-29T10:20:25;3.40;;;1.60;;
45728;SDS011;31439;53.512;10.206;2022-07-29T10:22:52;3.72;;;1.70;;
45728;SDS011;31439;53.512;10.206;2022-07-29T10:25:19;4.28;;;1.75;;
45728;SDS011;31439;53.512;10.206;2022-07-29T10:27:47;6.50;;;1.70;;
45728;SDS011;31439;53.512;10.206;2022-07-29T10:30:15;5.35;;;1.70;;
45728;SDS011;31439;53.512;10.206;2022-07-29T10:38:45;7.25;;;1.95;;
45728;SDS011;31439;53.512;10.206;2022-07-29T10:41:43;15.15;;;2.13;;
45728;SDS011;31439;53.512;10.206;2022-07-29T10:44:21;19.83;;;2.28;;
45728;SDS011;31439;53.512;10.206;2022-07-29T10:46:49;3.15;;;1.55;;
45728;SDS011;31439;53.512;10.206;2022-07-29T10:49:17;7.10;;;2.30;;
45728;SDS011;31439;53.512;10.206;2022-07-29T10:59:41;3.65;;;1.50;;
45728;SDS011;31439;53.512;10.206;2022-07-29T11:07:33;3.13;;;1.48;;
45728;SDS011;31439;53.512;10.206;2022-07-29T11:20:42;5.22;;;1.60;;
45728;SDS011;31439;53.512;10.206;2022-07-29T11:23:31;7.30;;;1.88;;
45728;SDS011;31439;53.512;10.206;2022-07-29T11:28:36;5.47;;;1.60;;
45728;SDS011;31439;53.512;10.206;2022-07-29T11:31:13;4.72;;;1.50;;
45728;SDS011;31439;53.512;10.206;2022-07-29T11:33:44;5.38;;;1.80;;
45728;SDS011;31439;53.512;10.206;2022-07-29T11:36:11;6.00;;;1.60;;
45728;SDS011;31439;53.512;10.206;2022-07-29T11:38:37;4.78;;;1.63;;
45728;SDS011;31439;53.512;10.206;2022-07-29T11:43:52;3.60;;;1.45;;
45728;SDS011;31439;53.512;10.206;2022-07-29T11:49:11;2.63;;;1.27;;
45728;SDS011;31439;53.512;10.206;2022-07-29T11:51:37;5.32;;;1.60;;
45728;SDS011;31439;53.512;10.206;2022-07-29T11:54:04;3.03;;;1.33;;
45728;SDS011;31439;53.512;10.206;2022-07-29T11:56:32;6.45;;;1.65;;
45728;SDS011;31439;53.512;10.206;2022-07-29T11:59:04;4.70;;;1.50;;
45728;SDS011;31439;53.512;10.206;2022-07-29T12:01:31;5.70;;;1.65;;
45728;SDS011;31439;53.512;10.206;2022-07-29T12:04:06;9.07;;;1.67;;
45728;SDS011;31439;53.512;10.206;2022-07-29T12:06:33;7.72;;;1.55;;
45728;SDS011;31439;53.512;10.206;2022-07-29T12:08:59;5.90;;;1.60;;
45728;SDS011;31439;53.512;10.206;2022-07-29T12:11:25;8.82;;;1.75;;
45728;SDS011;31439;53.512;10.206;2022-07-29T12:13:51;5.10;;;1.98;;
45728;SDS011;31439;53.512;10.206;2022-07-29T12:16:18;6.28;;;1.63;;
45728;SDS011;31439;53.512;10.206;2022-07-29T12:18:54;6.35;;;1.60;;
45728;SDS011;31439;53.512;10.206;2022-07-29T12:21:24;4.47;;;1.55;;
45728;SDS011;31439;53.512;10.206;2022-07-29T12:23:53;7.45;;;1.80;;
45728;SDS011;31439;53.512;10.206;2022-07-29T12:26:22;4.82;;;1.58;;
45728;SDS011;31439;53.512;10.206;2022-07-29T12:28:48;3.15;;;1.33;;
45728;SDS011;31439;53.512;10.206;2022-07-29T12:31:14;4.13;;;1.50;;
45728;SDS011;31439;53.512;10.206;2022-07-29T12:33:40;4.28;;;1.58;;
45728;SDS011;31439;53.512;10.206;2022-07-29T12:36:07;3.63;;;1.60;;
45728;SDS011;31439;53.512;10.206;2022-07-29T12:38:36;6.32;;;1.60;;
45728;SDS011;31439;53.512;10.206;2022-07-29T12:41:05;6.03;;;1.70;;
45728;SDS011;31439;53.512;10.206;2022-07-29T12:43:32;6.70;;;1.77;;
45728;SDS011;31439;53.512;10.206;2022-07-29T12:46:10;4.47;;;2.00;;
45728;SDS011;31439;53.512;10.206;2022-07-29T12:48:38;4.65;;;1.70;;
45728;SDS011;31439;53.512;10.206;2022-07-29T12:51:06;6.85;;;1.95;;
45728;SDS011;31439;53.512;10.206;2022-07-29T12:53:34;5.40;;;1.60;;
45728;SDS011;31439;53.512;10.206;2022-07-29T12:56:00;7.53;;;1.60;;
45728;SDS011;31439;53.512;10.206;2022-07-29T12:58:28;6.28;;;1.70;;
45728;SDS011;31439;53.512;10.206;2022-07-29T13:01:10;7.70;;;1.67;;
45728;SDS011;31439;53.512;10.206;2022-07-29T13:03:47;5.63;;;1.67;;
45728;SDS011;31439;53.512;10.206;2022-07-29T13:06:38;5.13;;;1.60;;
45728;SDS011;31439;53.512;10.206;2022-07-29T13:09:12;4.40;;;1.60;;
45728;SDS011;31439;53.512;10.206;2022-07-29T13:14:31;6.57;;;1.63;;
45728;SDS011;31439;53.512;10.206;2022-07-29T13:17:03;4.05;;;1.52;;
45728;SDS011;31439;53.512;10.206;2022-07-29T13:22:07;7.20;;;1.60;;
45728;SDS011;31439;53.512;10.206;2022-07-29T13:24:54;4.10;;;1.40;;
45728;SDS011;31439;53.512;10.206;2022-07-29T13:27:24;3.70;;;1.65;;
45728;SDS011;31439;53.512;10.206;2022-07-29T13:29:51;3.95;;;1.60;;
45728;SDS011;31439;53.512;10.206;2022-07-29T13:32:18;7.65;;;1.70;;
45728;SDS011;31439;53.512;10.206;2022-07-29T13:34:45;5.10;;;1.70;;
45728;SDS011;31439;53.512;10.206;2022-07-29T13:37:10;3.92;;;1.60;;
45728;SDS011;31439;53.512;10.206;2022-07-29T13:39:36;7.88;;;1.75;;
45728;SDS011;31439;53.512;10.206;2022-07-29T13:42:02;4.00;;;1.60;;
45728;SDS011;31439;53.512;10.206;2022-07-29T13:44:29;5.03;;;1.80;;
45728;SDS011;31439;53.512;10.206;2022-07-29T13:46:54;6.28;;;1.70;;
45728;SDS011;31439;53.512;10.206;2022-07-29T13:49:21;7.35;;;1.60;;
45728;SDS011;31439;53.512;10.206;2022-07-29T13:51:47;5.85;;;1.75;;
45728;SDS011;31439;53.512;10.206;2022-07-29T13:54:14;8.57;;;2.30;;
45728;SDS011;31439;53.512;10.206;2022-07-29T13:56:40;9.10;;;2.47;;
45728;SDS011;31439;53.512;10.206;2022-07-29T13:59:05;4.13;;;1.60;;
45728;SDS011;31439;53.512;10.206;2022-07-29T14:01:32;4.72;;;1.95;;
45728;SDS011;31439;53.512;10.206;2022-07-29T14:03:59;6.15;;;2.08;;
45728;SDS011;31439;53.512;10.206;2022-07-29T14:06:25;4.72;;;1.80;;
45728;SDS011;31439;53.512;10.206;2022-07-29T14:08:50;8.27;;;2.53;;
45728;SDS011;31439;53.512;10.206;2022-07-29T14:11:16;7.07;;;1.80;;
45728;SDS011;31439;53.512;10.206;2022-07-29T14:13:42;6.75;;;2.10;;
45728;SDS011;31439;53.512;10.206;2022-07-29T14:16:07;7.95;;;2.28;;
45728;SDS011;31439;53.512;10.206;2022-07-29T14:18:33;6.45;;;2.10;;
45728;SDS011;31439;53.512;10.206;2022-07-29T14:20:59;7.55;;;2.22;;
45728;SDS011;31439;53.512;10.206;2022-07-29T14:23:24;6.88;;;1.70;;
45728;SDS011;31439;53.512;10.206;2022-07-29T14:25:50;8.70;;;2.03;;
45728;SDS011;31439;53.512;10.206;2022-07-29T14:28:16;8.05;;;1.70;;
45728;SDS011;31439;53.512;10.206;2022-07-29T14:30:42;6.57;;;1.77;;
45728;SDS011;31439;53.512;10.206;2022-07-29T14:33:08;5.30;;;2.10;;
45728;SDS011;31439;53.512;10.206;2022-07-29T14:35:33;8.38;;;1.90;;
45728;SDS011;31439;53.512;10.206;2022-07-29T14:37:59;9.27;;;2.00;;
45728;SDS011;31439;53.512;10.206;2022-07-29T14:40:24;4.45;;;1.90;;
45728;SDS011;31439;53.512;10.206;2022-07-29T14:42:53;5.63;;;1.80;;
45728;SDS011;31439;53.512;10.206;2022-07-29T14:45:18;6.20;;;1.80;;
45728;SDS011;31439;53.512;10.206;2022-07-29T14:47:44;4.60;;;1.90;;
45728;SDS011;31439;53.512;10.206;2022-07-29T14:50:10;11.52;;;2.05;;
45728;SDS011;31439;53.512;10.206;2022-07-29T14:52:36;7.25;;;2.22;;
45728;SDS011;31439;53.512;10.206;2022-07-29T14:55:02;7.07;;;2.08;;
45728;SDS011;31439;53.512;10.206;2022-07-29T14:57:28;7.63;;;1.75;;
45728;SDS011;31439;53.512;10.206;2022-07-29T14:59:54;4.53;;;2.00;;
45728;SDS011;31439;53.512;10.206;2022-07-29T15:02:20;7.05;;;2.03;;
45728;SDS011;31439;53.512;10.206;2022-07-29T15:04:45;6.35;;;1.90;;
45728;SDS011;31439;53.512;10.206;2022-07-29T15:07:12;4.10;;;1.80;;
45728;SDS011;31439;53.512;10.206;2022-07-29T15:09:38;5.35;;;1.90;;
45728;SDS011;31439;53.512;10.206;2022-07-29T15:12:04;4.38;;;1.60;;
45728;SDS011;31439;53.512;10.206;2022-07-29T15:14:30;10.13;;;2.00;;
45728;SDS011;31439;53.512;10.206;2022-07-29T15:16:57;6.60;;;1.75;;
45728;SDS011;31439;53.512;10.206;2022-07-29T15:19:22;7.68;;;2.17;;
45728;SDS011;31439;53.512;10.206;2022-07-29T15:21:48;9.90;;;2.10;;
45728;SDS011;31439;53.512;10.206;2022-07-29T15:24:14;6.85;;;1.92;;
45728;SDS011;31439;53.512;10.206;2022-07-29T15:26:40;8.23;;;2.22;;
45728;SDS011;31439;53.512;10.206;2022-07-29T15:29:07;4.32;;;2.00;;
45728;SDS011;31439;53.512;10.206;2022-07-29T15:31:33;5.90;;;2.15;;
45728;SDS011;31439;53.512;10.206;2022-07-29T15:33:58;6.38;;;2.17;;
45728;SDS011;31439;53.512;10.206;2022-07-29T15:36:24;9.48;;;2.17;;